Time;durP1;ratioP1;P1;durP2;ratioP2;P2;SDS_P1;SDS_P2;PMS_P1;PMS_P2;Temp;Humidity;BMP_temperature;BMP_pressure;BME280_temperature;BME280_humidity;BME280_pressure;Samples;Min_cycle;Max_cycle;Signal;HPM_P1;HPM_P2
2022/12/15 00:39:57;;;;;;;;;;;;;;;;;;5074886;28;19927;-89
2022/12/15 00:42:23;;;;;;;;;;;;;;;;;;5058907;28;20387;-89
2022/12/15 00:44:50;;;;;;;;;;;;;;;;;;5058620;28;19924;-89
2022/12/15 00:47:15;;;;;;;;;;;;;;;;;;5058609;28;19943;-89
2022/12/15 01:22:38;;;;;;;;;;;;;;;;;;5075203;28;19974;-89
2022/12/15 01:25:04;;;;;;;;;;;;;;;;;;5058099;28;19971;-89
2022/12/15 01:27:30;;;;;;;;;;;;;;;;;;5059172;28;20444;-89
2022/12/15 01:29:56;;;;;;;;;;;;;;;;;;5061540;28;19927;-89
2022/12/15 01:32:21;;;;;;;;;;;;;;;;;;5078440;28;19920;-89
2022/12/15 01:34:47;;;;;;;;;;;;;;;;;;5061704;28;19920;-89
2022/12/15 01:37:13;;;;;;;;;;;;;;;;;;5061510;28;19920;-89
2022/12/15 01:42:24;;;;;;;;;;;;;;;;;;5078126;28;19920;-89
2022/12/15 01:44:50;;;;;;;;;;;;;;;;;;5061258;28;19928;-89
2022/12/15 01:47:16;;;;;;;;;;;;;;;;;;5061718;28;19927;-89
2022/12/15 01:49:42;;;;;;;;;;;;;;;;;;5061364;28;19920;-88
2022/12/15 01:52:07;;;;;;;;;;;;;;;;;;5061429;28;19926;-89
2022/12/15 01:54:33;;;;;;;;;;;;;;;;;;5061325;28;19920;-89
2022/12/15 01:56:59;;;;;;;;;;;;;;;;;;5078063;28;19924;-89
2022/12/15 01:59:25;;;;;;;;;;;;;;;;;;5060809;28;20285;-89
2022/12/15 02:01:51;;;;;;;;;;;;;;;;;;5061394;28;20349;-89
2022/12/15 02:04:17;;;;;;;;;;;;;;;;;;5077590;28;20011;-89
2022/12/15 02:06:43;;;;;;;;;;;;;;;;;;5061113;28;19920;-89
2022/12/15 02:09:09;;;;;;;;;;;;;;;;;;5060574;28;20396;-89
2022/12/15 02:11:35;;;;;;;;;;;;;;;;;;5077751;28;19920;-89
2022/12/15 02:14:01;;;;;;;;;;;;;;;;;;5061038;28;19946;-89
2022/12/15 02:16:27;;;;;;;;;;;;;;;;;;5061034;28;19920;-89
2022/12/15 02:18:53;;;;;;;;;;;;;;;;;;5060308;28;19971;-89
2022/12/15 02:21:18;;;;;;;;;;;;;;;;;;5060460;28;19924;-89
2022/12/15 02:23:44;;;;;;;;;;;;;;;;;;5060644;28;20403;-89
2022/12/15 02:26:10;;;;;;;;;;;;;;;;;;5077503;28;19920;-89
2022/12/15 02:28:36;;;;;;;;;;;;;;;;;;5077717;28;19966;-89
2022/12/15 02:33:47;;;;;;;;;;;;;;;;;;5077272;28;19926;-89
2022/12/15 02:36:13;;;;;;;;;;;;;;;;;;5077299;28;20014;-90
2022/12/15 02:38:40;;;;;;;;;;;;;;;;;;5060445;28;19920;-89
2022/12/15 02:41:06;;;;;;;;;;;;;;;;;;5060489;28;20550;-89
2022/12/15 02:43:32;;;;;;;;;;;;;;;;;;5060645;28;19920;-89
2022/12/15 02:46:00;;;;;;;;;;;;;;;;;;5060256;28;20019;-89
2022/12/15 02:48:26;;;;;;;;;;;;;;;;;;5077289;28;20011;-89
2022/12/15 02:50:52;;;;;;;;;;;;;;;;;;5059911;28;20289;-88
2022/12/15 02:53:18;;;;;;;;;;;;;;;;;;5076970;28;19973;-89
2022/12/15 02:55:45;;;;;;;;;;;;;;;;;;5060137;28;19920;-89
2022/12/15 02:58:11;;;;;;;;;;;;;;;;;;5076807;28;19920;-89
2022/12/15 03:00:37;;;;;;;;;;;;;;;;;;5059663;28;19920;-89
2022/12/15 03:03:03;;;;;;;;;;;;;;;;;;5076622;28;20289;-89
2022/12/15 03:05:29;;;;;;;;;;;;;;;;;;5059695;28;19931;-89
2022/12/15 03:07:55;;;;;;;;;;;;;;;;;;5059993;28;19924;-89
2022/12/15 03:10:22;;;;;;;;;;;;;;;;;;5059538;28;20007;-89
2022/12/15 03:12:49;;;;;;;;;;;;;;;;;;5059988;28;19920;-89
2022/12/15 03:15:15;;;;;;;;;;;;;;;;;;5059760;28;20296;-89
2022/12/15 03:17:40;;;;;;;;;;;;;;;;;;5076606;28;19920;-89
2022/12/15 03:20:07;;;;;;;;;;;;;;;;;;5059413;28;20006;-89
2022/12/15 03:22:33;;;;;;;;;;;;;;;;;;5059788;28;19970;-89
2022/12/15 03:24:59;;;;;;;;;;;;;;;;;;5059497;28;19931;-89
2022/12/15 03:27:25;;;;;;;;;;;;;;;;;;5076319;28;19920;-89
2022/12/15 03:29:51;;;;;;;;;;;;;;;;;;5075801;28;19968;-89
2022/12/15 03:32:17;;;;;;;;;;;;;;;;;;5059538;28;19920;-89
2022/12/15 03:34:44;;;;;;;;;;;;;;;;;;5059746;28;20381;-89
2022/12/15 03:37:09;;;;;;;;;;;;;;;;;;5059765;28;20453;-89
2022/12/15 03:39:35;;;;;;;;;;;;;;;;;;5075858;28;19924;-89
2022/12/15 03:42:01;;;;;;;;;;;;;;;;;;5059804;28;19927;-89
2022/12/15 03:44:27;;;;;;;;;;;;;;;;;;5059161;28;19924;-89
2022/12/15 03:46:54;;;;;;;;;;;;;;;;;;5059197;28;19920;-89
2022/12/15 03:49:20;;;;;;;;;;;;;;;;;;5075443;28;19927;-89
2022/12/15 03:51:46;;;;;;;;;;;;;;;;;;5058659;28;19920;-89
2022/12/15 03:54:12;;;;;;;;;;;;;;;;;;5059140;28;20315;-89
2022/12/15 03:56:38;;;;;;;;;;;;;;;;;;5059189;28;19965;-89
2022/12/15 03:59:03;;;;;;;;;;;;;;;;;;5058826;28;20296;-89
2022/12/15 04:01:29;;;;;;;;;;;;;;;;;;5059405;28;19931;-89
2022/12/15 04:03:55;;;;;;;;;;;;;;;;;;5058852;28;19924;-89
2022/12/15 04:06:21;;;;;;;;;;;;;;;;;;5059484;28;19920;-89
2022/12/15 04:08:47;;;;;;;;;;;;;;;;;;5059131;28;19920;-88
2022/12/15 04:11:13;;;;;;;;;;;;;;;;;;5058944;28;19935;-89
2022/12/15 04:13:39;;;;;;;;;;;;;;;;;;5059192;28;20348;-89
2022/12/15 04:16:05;;;;;;;;;;;;;;;;;;5059254;28;19924;-89
2022/12/15 04:18:31;;;;;;;;;;;;;;;;;;5058935;28;19924;-89
2022/12/15 04:20:57;;;;;;;;;;;;;;;;;;5058025;28;19927;-89
2022/12/15 04:23:22;;;;;;;;;;;;;;;;;;5058812;28;19920;-89
2022/12/15 05:32:00;;;;;;;;;;;;;;;;;;5098075;28;19992;-89
2022/12/15 05:34:26;;;;;;;;;;;;;;;;;;5097959;28;19923;-89
2022/12/15 05:36:52;;;;;;;;;;;;;;;;;;5081477;28;19928;-89
2022/12/15 05:39:18;;;;;;;;;;;;;;;;;;5080946;28;19920;-89
2022/12/15 05:41:44;;;;;;;;;;;;;;;;;;5081316;28;19942;-89
2022/12/15 05:44:10;;;;;;;;;;;;;;;;;;5077611;28;19972;-89
2022/12/15 05:46:36;;;;;;;;;;;;;;;;;;5060732;28;19920;-89
2022/12/15 05:49:02;;;;;;;;;;;;;;;;;;5077117;28;19924;-89
2022/12/15 05:51:28;;;;;;;;;;;;;;;;;;5060583;28;19924;-88
2022/12/15 05:54:06;;;;;;;;;;;;;;;;;;5074403;28;19924;-89
2022/12/15 05:56:32;;;;;;;;;;;;;;;;;;5114678;28;19967;-89
2022/12/15 05:58:58;;;;;;;;;;;;;;;;;;5080401;28;19920;-89
2022/12/15 06:01:23;;;;;;;;;;;;;;;;;;5097865;28;20418;-88
2022/12/15 06:03:49;;;;;;;;;;;;;;;;;;5077378;28;19931;-89
2022/12/15 06:06:15;;;;;;;;;;;;;;;;;;5060628;28;19920;-89
2022/12/15 06:08:41;;;;;;;;;;;;;;;;;;5060286;28;19920;-88
2022/12/15 06:11:07;;;;;;;;;;;;;;;;;;5076812;28;20006;-89
2022/12/15 06:13:33;;;;;;;;;;;;;;;;;;5076726;28;19920;-89
2022/12/15 06:15:59;;;;;;;;;;;;;;;;;;5080290;28;20381;-89
2022/12/15 06:18:25;;;;;;;;;;;;;;;;;;5097119;28;20376;-89
2022/12/15 06:20:51;;;;;;;;;;;;;;;;;;5079979;28;20360;-89
2022/12/15 06:23:17;;;;;;;;;;;;;;;;;;5080187;28;20431;-90
2022/12/15 06:25:43;;;;;;;;;;;;;;;;;;5113880;28;19932;-89
2022/12/15 06:28:08;;;;;;;;;;;;;;;;;;5080159;28;19953;-89
2022/12/15 06:30:34;;;;;;;;;;;;;;;;;;5113610;28;19931;-89
2022/12/15 06:33:00;;;;;;;;;;;;;;;;;;5076581;28;19927;-89
2022/12/15 06:35:26;;;;;;;;;;;;;;;;;;5076415;28;19980;-89
2022/12/15 06:37:52;;;;;;;;;;;;;;;;;;5060209;28;20412;-88
2022/12/15 06:40:18;;;;;;;;;;;;;;;;;;5079673;28;20006;-89
2022/12/15 06:42:44;;;;;;;;;;;;;;;;;;5076358;28;20010;-88
2022/12/15 06:45:10;;;;;;;;;;;;;;;;;;5059639;28;19934;-89
2022/12/15 06:47:36;;;;;;;;;;;;;;;;;;5076671;28;19920;-89
2022/12/15 06:50:01;;;;;;;;;;;;;;;;;;5076220;28;19927;-89
2022/12/15 06:52:27;;;;;;;;;;;;;;;;;;5079952;28;19920;-89
2022/12/15 06:54:53;;;;;;;;;;;;;;;;;;5079941;28;19966;-89
2022/12/15 06:57:19;;;;;;;;;;;;;;;;;;5107954;28;20014;-89
2022/12/15 06:59:45;;;;;;;;;;;;;;;;;;5094746;28;19920;-89
2022/12/15 07:02:11;;;;;;;;;;;;;;;;;;5068172;28;20300;-89
2022/12/15 07:04:37;;;;;;;;;;;;;;;;;;5079464;28;19924;-89
2022/12/15 07:07:03;;;;;;;;;;;;;;;;;;5096418;28;19923;-89
2022/12/15 07:09:29;;;;;;;;;;;;;;;;;;5078889;28;19973;-89
2022/12/15 07:11:55;;;;;;;;;;;;;;;;;;5096503;28;20024;-89
2022/12/15 07:14:21;;;;;;;;;;;;;;;;;;5076011;28;19920;-88
2022/12/15 07:16:47;;;;;;;;;;;;;;;;;;5058976;28;20462;-89
2022/12/15 07:19:13;;;;;;;;;;;;;;;;;;5058835;28;19920;-89
2022/12/15 07:21:40;;;;;;;;;;;;;;;;;;5058946;28;20463;-89
2022/12/15 07:27:09;;;;;;;;;;;;;;;;;;5093478;28;20669;-89
2022/12/15 07:32:31;;;;;;;;;;;;;;;;;;5095252;28;20295;-89
2022/12/15 07:35:07;;;;;;;;;;;;;;;;;;5078402;28;19920;-90
2022/12/15 07:37:34;;;;;;;;;;;;;;;;;;5074517;28;19920;-89
2022/12/15 07:40:00;;;;;;;;;;;;;;;;;;5080157;28;19972;-85
2022/12/15 07:42:26;;;;;;;;;;;;;;;;;;5058379;28;20459;-87
2022/12/15 07:44:52;;;;;;;;;;;;;;;;;;5075062;28;19924;-87
2022/12/15 07:47:18;;;;;;;;;;;;;;;;;;5074965;28;19920;-87
2022/12/15 07:49:43;;;;;;;;;;;;;;;;;;5075034;28;19926;-87
2022/12/15 07:52:09;;;;;;;;;;;;;;;;;;5083878;28;20006;-86
2022/12/15 07:54:35;;;;;;;;;;;;;;;;;;5078792;28;19919;-86
2022/12/15 07:57:01;;;;;;;;;;;;;;;;;;5076486;28;19927;-86
2022/12/15 07:59:27;;;;;;;;;;;;;;;;;;5075384;27;19935;-87
2022/12/15 08:01:53;;;;;;;;;;;;;;;;;;5096091;28;20340;-86
2022/12/15 08:04:19;;;;;;;;;;;;;;;;;;5079182;28;20045;-87
2022/12/15 08:06:50;;;;;;;;;;;;;;;;;;5062431;28;19965;-88
2022/12/15 08:09:16;;;;;;;;;;;;;;;;;;5077978;28;19935;-88
2022/12/15 08:11:42;;;;;;;;;;;;;;;;;;5078237;28;20292;-88
2022/12/15 08:14:08;;;;;;;;;;;;;;;;;;5071554;28;19920;-89
2022/12/15 08:16:35;;;;;;;;;;;;;;;;;;5065882;28;19927;-87
2022/12/15 08:19:01;;;;;;;;;;;;;;;;;;5078233;28;19920;-90
2022/12/15 08:21:27;;;;;;;;;;;;;;;;;;5078651;28;19919;-92
2022/12/15 08:23:53;;;;;;;;;;;;;;;;;;5076901;28;19928;-92
2022/12/15 08:26:19;;;;;;;;;;;;;;;;;;5065707;28;20016;-91
2022/12/15 08:31:14;;;;;;;;;;;;;;;;;;5077939;28;19928;-90
2022/12/15 08:33:39;;;;;;;;;;;;;;;;;;5078487;28;19947;-92
2022/12/15 08:36:17;;;;;;;;;;;;;;;;;;5061529;28;19927;-92
2022/12/15 08:38:43;;;;;;;;;;;;;;;;;;5064390;28;19919;-92
2022/12/15 08:41:09;;;;;;;;;;;;;;;;;;5067671;28;20011;-92
2022/12/15 08:43:35;;;;;;;;;;;;;;;;;;5099559;28;19923;-91
2022/12/15 08:46:00;;;;;;;;;;;;;;;;;;5079640;28;19924;-91
2022/12/15 08:48:26;;;;;;;;;;;;;;;;;;5062438;28;19927;-91
2022/12/15 08:50:52;;;;;;;;;;;;;;;;;;5061855;28;19920;-91
2022/12/15 08:53:18;;;;;;;;;;;;;;;;;;5069563;28;19926;-91
2022/12/15 08:55:44;;;;;;;;;;;;;;;;;;5079355;28;19927;-91
2022/12/15 08:58:10;;;;;;;;;;;;;;;;;;5075720;28;20026;-91
2022/12/15 09:00:36;;;;;;;;;;;;;;;;;;5078508;28;19944;-89
2022/12/15 09:03:02;;;;;;;;;;;;;;;;;;5062242;28;19920;-91
2022/12/15 09:05:28;;;;;;;;;;;;;;;;;;5065496;28;20376;-91
2022/12/15 09:07:54;;;;;;;;;;;;;;;;;;5079306;28;19966;-90
2022/12/15 09:10:20;;;;;;;;;;;;;;;;;;5068128;28;19923;-90
2022/12/15 09:12:46;;;;;;;;;;;;;;;;;;5081444;28;19920;-91
2022/12/15 09:15:12;;;;;;;;;;;;;;;;;;5077802;28;19920;-90
2022/12/15 09:17:37;;;;;;;;;;;;;;;;;;5060991;28;19927;-92
2022/12/15 09:20:04;;;;;;;;;;;;;;;;;;5077276;28;20387;-91
2022/12/15 09:22:30;;;;;;;;;;;;;;;;;;5061860;28;19924;-91
2022/12/15 09:25:11;;;;;;;;;;;;;;;;;;5062892;28;20001;-91
2022/12/15 09:27:37;;;;;;;;;;;;;;;;;;5067413;28;19927;-90
2022/12/15 09:30:03;;;;;;;;;;;;;;;;;;5060773;28;19920;-90
2022/12/15 09:32:33;;;;;;;;;;;;;;;;;;5061377;28;19921;-88
2022/12/15 09:34:59;;;;;;;;;;;;;;;;;;5069938;28;19929;-90
2022/12/15 09:37:25;;;;;;;;;;;;;;;;;;5061129;28;19924;-89
2022/12/15 09:39:51;;;;;;;;;;;;;;;;;;5072300;28;19957;-88
2022/12/15 09:42:17;;;;;;;;;;;;;;;;;;5080934;28;19919;-90
2022/12/15 09:44:43;;;;;;;;;;;;;;;;;;5081350;28;19946;-90
2022/12/15 09:47:10;;;;;;;;;;;;;;;;;;5075352;28;20407;-89
2022/12/15 09:49:36;;;;;;;;;;;;;;;;;;5072552;28;20368;-90
2022/12/15 09:52:02;;;;;;;;;;;;;;;;;;5075492;28;20011;-90
2022/12/15 09:54:27;;;;;;;;;;;;;;;;;;5060184;28;20003;-90
2022/12/15 09:56:54;;;;;;;;;;;;;;;;;;5061462;28;20387;-90
2022/12/15 09:59:20;;;;;;;;;;;;;;;;;;5060962;28;20068;-93
2022/12/15 10:01:46;;;;;;;;;;;;;;;;;;5073048;28;20000;-92
2022/12/15 10:04:12;;;;;;;;;;;;;;;;;;5060972;28;20023;-90
2022/12/15 10:06:38;;;;;;;;;;;;;;;;;;5063602;28;19926;-91
2022/12/15 10:09:04;;;;;;;;;;;;;;;;;;5080759;28;20292;-92
2022/12/15 10:11:30;;;;;;;;;;;;;;;;;;5115535;28;19928;-92
2022/12/15 10:13:56;;;;;;;;;;;;;;;;;;5071076;28;19962;-91
2022/12/15 10:16:21;;;;;;;;;;;;;;;;;;5114669;28;19947;-93
2022/12/15 10:18:47;;;;;;;;;;;;;;;;;;5080344;28;20336;-87
2022/12/15 10:21:13;;;;;;;;;;;;;;;;;;5079751;28;19958;-89
2022/12/15 10:23:39;;;;;;;;;;;;;;;;;;5096924;28;20010;-88
2022/12/15 10:26:05;;;;;;;;;;;;;;;;;;5080005;28;20448;-90
2022/12/15 10:28:31;;;;;;;;;;;;;;;;;;5096737;28;19930;-89
2022/12/15 10:30:58;;;;;;;;;;;;;;;;;;5079712;28;19920;-90
2022/12/15 10:33:23;;;;;;;;;;;;;;;;;;5080203;28;19972;-90
2022/12/15 10:35:49;;;;;;;;;;;;;;;;;;5080008;28;20015;-88
2022/12/15 10:38:15;;;;;;;;;;;;;;;;;;5072066;28;20380;-91
2022/12/15 10:40:41;;;;;;;;;;;;;;;;;;5059544;28;19920;-89
2022/12/15 10:43:07;;;;;;;;;;;;;;;;;;5059646;28;19971;-89
2022/12/15 10:45:34;;;;;;;;;;;;;;;;;;5076570;28;19928;-89
2022/12/15 10:48:01;;;;;;;;;;;;;;;;;;5061086;28;19931;-90
2022/12/15 10:50:27;;;;;;;;;;;;;;;;;;5059065;28;19973;-89
2022/12/15 10:52:53;;;;;;;;;;;;;;;;;;5059576;28;19920;-89
2022/12/15 10:55:19;;;;;;;;;;;;;;;;;;5059458;28;19956;-89
2022/12/15 10:57:45;;;;;;;;;;;;;;;;;;5059725;28;19927;-89
2022/12/15 11:00:11;;;;;;;;;;;;;;;;;;5075853;28;19927;-90
2022/12/15 11:02:36;;;;;;;;;;;;;;;;;;5073273;28;19920;-90
2022/12/15 11:05:02;;;;;;;;;;;;;;;;;;5079700;28;20451;-90
2022/12/15 11:07:28;;;;;;;;;;;;;;;;;;5062892;28;20011;-90
2022/12/15 11:10:06;;;;;;;;;;;;;;;;;;5075782;28;19924;-90
2022/12/15 11:12:50;;;;;;;;;;;;;;;;;;5076057;28;20003;-91
2022/12/15 11:15:16;;;;;;;;;;;;;;;;;;5091229;28;19995;-90
2022/12/15 11:17:42;;;;;;;;;;;;;;;;;;5080266;28;20364;-89
2022/12/15 11:20:10;;;;;;;;;;;;;;;;;;5078302;28;20003;-92
2022/12/15 11:22:35;;;;;;;;;;;;;;;;;;5060071;28;19965;-90
2022/12/15 11:25:01;;;;;;;;;;;;;;;;;;5073731;28;20011;-87
2022/12/15 11:27:27;;;;;;;;;;;;;;;;;;5076073;28;19920;-87
2022/12/15 11:29:54;;;;;;;;;;;;;;;;;;5059227;28;19920;-88
2022/12/15 11:32:20;;;;;;;;;;;;;;;;;;5059195;28;19931;-87
2022/12/15 11:34:46;;;;;;;;;;;;;;;;;;5059299;28;19921;-87
2022/12/15 11:37:11;;;;;;;;;;;;;;;;;;5075928;28;20334;-87
2022/12/15 11:39:37;;;;;;;;;;;;;;;;;;5058776;28;19970;-88
2022/12/15 11:42:03;;;;;;;;;;;;;;;;;;5075730;28;19920;-87
2022/12/15 11:44:29;;;;;;;;;;;;;;;;;;5075634;28;19924;-87
2022/12/15 11:46:55;;;;;;;;;;;;;;;;;;5058952;28;19924;-87
2022/12/15 11:49:21;;;;;;;;;;;;;;;;;;5067496;28;19927;-87
2022/12/15 11:51:47;;;;;;;;;;;;;;;;;;5078848;28;19951;-87
2022/12/15 11:54:13;;;;;;;;;;;;;;;;;;5075506;28;19920;-88
2022/12/15 11:56:39;;;;;;;;;;;;;;;;;;5059011;28;20398;-88
2022/12/15 11:59:05;;;;;;;;;;;;;;;;;;5058833;28;19927;-87
2022/12/15 12:01:31;;;;;;;;;;;;;;;;;;5058849;28;19959;-87
2022/12/15 12:03:57;;;;;;;;;;;;;;;;;;5075423;28;20420;-87
2022/12/15 12:06:23;;;;;;;;;;;;;;;;;;5075403;28;19927;-87
2022/12/15 12:08:49;;;;;;;;;;;;;;;;;;5066600;28;19919;-87
2022/12/15 12:11:15;;;;;;;;;;;;;;;;;;5112570;28;20322;-87
2022/12/15 12:13:41;;;;;;;;;;;;;;;;;;5105702;28;19945;-87
2022/12/15 12:16:08;;;;;;;;;;;;;;;;;;5073299;28;19919;-87
2022/12/15 12:18:34;;;;;;;;;;;;;;;;;;5078767;28;20043;-87
2022/12/15 12:21:00;;;;;;;;;;;;;;;;;;5094077;28;19919;-87
2022/12/15 12:23:25;;;;;;;;;;;;;;;;;;5058689;28;20388;-87
2022/12/15 12:25:51;;;;;;;;;;;;;;;;;;5058696;28;19998;-87
2022/12/15 12:28:35;;;;;;;;;;;;;;;;;;5058607;28;19927;-87
2022/12/15 12:31:01;;;;;;;;;;;;;;;;;;5058541;28;19921;-87
2022/12/15 12:33:27;;;;;;;;;;;;;;;;;;5058500;28;19927;-87
2022/12/15 12:35:54;;;;;;;;;;;;;;;;;;5062631;28;19920;-88
2022/12/15 12:38:20;;;;;;;;;;;;;;;;;;5070731;28;19928;-88
2022/12/15 12:40:45;;;;;;;;;;;;;;;;;;5078462;28;19923;-88
2022/12/15 12:43:11;;;;;;;;;;;;;;;;;;5075443;28;19920;-87
2022/12/15 12:45:37;;;;;;;;;;;;;;;;;;5058416;28;19931;-87
2022/12/15 12:48:03;;;;;;;;;;;;;;;;;;5058439;28;19926;-88
2022/12/15 12:50:29;;;;;;;;;;;;;;;;;;5067730;28;20400;-88
2022/12/15 12:52:55;;;;;;;;;;;;;;;;;;5074526;28;19920;-87
2022/12/15 12:55:22;;;;;;;;;;;;;;;;;;5075342;28;19924;-87
2022/12/15 12:57:48;;;;;;;;;;;;;;;;;;5058293;28;19965;-88
2022/12/15 13:00:14;;;;;;;;;;;;;;;;;;5070658;28;19919;-87
2022/12/15 13:02:40;;;;;;;;;;;;;;;;;;5065824;28;19931;-88
2022/12/15 13:05:06;;;;;;;;;;;;;;;;;;5078240;28;19924;-88
2022/12/15 13:07:33;;;;;;;;;;;;;;;;;;5078606;28;19920;-88
2022/12/15 13:09:59;;;;;;;;;;;;;;;;;;5095081;28;20375;-87
2022/12/15 13:12:25;;;;;;;;;;;;;;;;;;5060587;28;19932;-86
2022/12/15 13:14:51;;;;;;;;;;;;;;;;;;5066621;28;19996;-87
2022/12/15 13:17:17;;;;;;;;;;;;;;;;;;5072047;28;20705;-87
2022/12/15 13:19:43;;;;;;;;;;;;;;;;;;5085719;28;19920;-87
2022/12/15 13:22:09;;;;;;;;;;;;;;;;;;5061414;28;19920;-87
2022/12/15 13:24:36;;;;;;;;;;;;;;;;;;5072567;28;19931;-87
2022/12/15 13:27:02;;;;;;;;;;;;;;;;;;5098821;28;19920;-87
2022/12/15 13:29:28;;;;;;;;;;;;;;;;;;5081707;28;19920;-87
2022/12/15 13:31:54;;;;;;;;;;;;;;;;;;5072153;28;19920;-87
2022/12/15 13:34:19;;;;;;;;;;;;;;;;;;5061727;28;19928;-87
2022/12/15 13:36:45;;;;;;;;;;;;;;;;;;5068902;28;19981;-87
2022/12/15 13:39:11;;;;;;;;;;;;;;;;;;5064501;28;20391;-87
2022/12/15 13:41:37;;;;;;;;;;;;;;;;;;5115324;28;19920;-87
2022/12/15 13:44:03;;;;;;;;;;;;;;;;;;5115505;28;19963;-87
2022/12/15 13:46:29;;;;;;;;;;;;;;;;;;5096480;28;19968;-87
2022/12/15 13:48:55;;;;;;;;;;;;;;;;;;5067300;28;19920;-87
2022/12/15 13:51:21;;;;;;;;;;;;;;;;;;5093095;28;20380;-87
2022/12/15 13:53:47;;;;;;;;;;;;;;;;;;5078191;28;19920;-87
2022/12/15 13:56:13;;;;;;;;;;;;;;;;;;5061353;28;19923;-87
2022/12/15 13:58:39;;;;;;;;;;;;;;;;;;5076755;28;19981;-87
2022/12/15 14:01:04;;;;;;;;;;;;;;;;;;5080995;28;19920;-87
2022/12/15 14:03:30;;;;;;;;;;;;;;;;;;5115248;28;20399;-87
2022/12/15 14:05:56;;;;;;;;;;;;;;;;;;5080986;28;19977;-87
2022/12/15 14:08:22;;;;;;;;;;;;;;;;;;5081128;28;19920;-86
2022/12/15 14:10:50;;;;;;;;;;;;;;;;;;5077321;28;20429;-87
2022/12/15 14:13:15;;;;;;;;;;;;;;;;;;5080814;28;20399;-87
2022/12/15 14:15:41;;;;;;;;;;;;;;;;;;5080863;28;19920;-87
2022/12/15 14:18:07;;;;;;;;;;;;;;;;;;5080859;28;19926;-87
2022/12/15 14:20:33;;;;;;;;;;;;;;;;;;5080704;28;19943;-87
2022/12/15 14:22:59;;;;;;;;;;;;;;;;;;5080830;28;19919;-87
2022/12/15 14:25:25;;;;;;;;;;;;;;;;;;5080614;28;19927;-87
2022/12/15 14:27:51;;;;;;;;;;;;;;;;;;5081047;28;20550;-87
2022/12/15 14:30:17;;;;;;;;;;;;;;;;;;5080792;28;19920;-87
2022/12/15 14:32:43;;;;;;;;;;;;;;;;;;5080538;28;19919;-87
2022/12/15 14:35:08;;;;;;;;;;;;;;;;;;5110703;28;19928;-87
2022/12/15 14:37:34;;;;;;;;;;;;;;;;;;5092742;28;19941;-87
2022/12/15 14:40:00;;;;;;;;;;;;;;;;;;5080336;28;19924;-87
2022/12/15 14:42:26;;;;;;;;;;;;;;;;;;5080476;28;19969;-87
2022/12/15 14:44:52;;;;;;;;;;;;;;;;;;5067667;28;19924;-87
2022/12/15 14:47:18;;;;;;;;;;;;;;;;;;5080223;28;19920;-87
2022/12/15 14:52:13;;;;;;;;;;;;;;;;;;5097016;28;19927;-87
2022/12/15 14:54:39;;;;;;;;;;;;;;;;;;5114330;28;19920;-87
2022/12/15 14:57:05;;;;;;;;;;;;;;;;;;5080441;28;19927;-87
2022/12/15 14:59:30;;;;;;;;;;;;;;;;;;5071420;28;19924;-87
2022/12/15 15:01:58;;;;;;;;;;;;;;;;;;5093374;28;19927;-87
2022/12/15 15:04:24;;;;;;;;;;;;;;;;;;5061431;28;19931;-87
2022/12/15 15:06:50;;;;;;;;;;;;;;;;;;5079782;28;19923;-87
2022/12/15 15:09:16;;;;;;;;;;;;;;;;;;5079674;28;19973;-87
2022/12/15 15:11:42;;;;;;;;;;;;;;;;;;5071325;28;19942;-87
2022/12/15 15:14:08;;;;;;;;;;;;;;;;;;5076727;28;19920;-87
2022/12/15 15:16:34;;;;;;;;;;;;;;;;;;5059933;28;19972;-87
2022/12/15 15:19:00;;;;;;;;;;;;;;;;;;5059669;28;19924;-88
2022/12/15 15:21:26;;;;;;;;;;;;;;;;;;5078481;28;19920;-87
2022/12/15 15:23:52;;;;;;;;;;;;;;;;;;5075343;28;19920;-88
2022/12/15 15:26:18;;;;;;;;;;;;;;;;;;5079321;28;19924;-88
2022/12/15 15:28:44;;;;;;;;;;;;;;;;;;5113473;28;20380;-88
2022/12/15 15:31:09;;;;;;;;;;;;;;;;;;5113491;28;20322;-88
2022/12/15 15:33:35;;;;;;;;;;;;;;;;;;5079706;28;19969;-88
2022/12/15 15:36:01;;;;;;;;;;;;;;;;;;5079287;28;19927;-88
2022/12/15 15:38:27;;;;;;;;;;;;;;;;;;5113150;28;20611;-88
2022/12/15 15:40:53;;;;;;;;;;;;;;;;;;5112999;28;19919;-88
2022/12/15 15:43:19;;;;;;;;;;;;;;;;;;5079339;28;20269;-88
2022/12/15 15:45:45;;;;;;;;;;;;;;;;;;5074425;28;19931;-88
2022/12/15 15:48:11;;;;;;;;;;;;;;;;;;5074571;28;19920;-88
2022/12/15 15:50:37;;;;;;;;;;;;;;;;;;5078887;28;19920;-88
2022/12/15 15:53:03;;;;;;;;;;;;;;;;;;5071490;28;20675;-88
2022/12/15 15:55:30;;;;;;;;;;;;;;;;;;5058826;28;19920;-88
2022/12/15 15:57:55;;;;;;;;;;;;;;;;;;5058968;28;19963;-88
2022/12/15 16:00:21;;;;;;;;;;;;;;;;;;5072908;28;19969;-88
2022/12/15 16:02:47;;;;;;;;;;;;;;;;;;5112837;28;19963;-88
2022/12/15 16:05:13;;;;;;;;;;;;;;;;;;5112570;28;19924;-88
2022/12/15 16:07:39;;;;;;;;;;;;;;;;;;5095970;28;19926;-88
2022/12/15 16:10:05;;;;;;;;;;;;;;;;;;5095530;28;19973;-88
2022/12/15 16:12:32;;;;;;;;;;;;;;;;;;5067240;28;20396;-88
2022/12/15 16:14:58;;;;;;;;;;;;;;;;;;5075803;28;19920;-88
2022/12/15 16:17:24;;;;;;;;;;;;;;;;;;5059019;28;19964;-88
2022/12/15 16:19:50;;;;;;;;;;;;;;;;;;5058440;28;19992;-89
2022/12/15 16:22:18;;;;;;;;;;;;;;;;;;5057676;28;20408;-89
2022/12/15 16:24:43;;;;;;;;;;;;;;;;;;5058738;28;20005;-88
2022/12/15 16:27:09;;;;;;;;;;;;;;;;;;5069272;28;20452;-88
2022/12/15 16:29:35;;;;;;;;;;;;;;;;;;5057719;28;19920;-88
2022/12/15 16:32:01;;;;;;;;;;;;;;;;;;5057739;28;19946;-88
2022/12/15 16:34:27;;;;;;;;;;;;;;;;;;5064653;28;19981;-88
2022/12/15 16:36:53;;;;;;;;;;;;;;;;;;5074641;28;20388;-88
2022/12/15 16:39:19;;;;;;;;;;;;;;;;;;5057781;28;19920;-88
2022/12/15 16:41:45;;;;;;;;;;;;;;;;;;5074294;28;19920;-88
2022/12/15 16:44:11;;;;;;;;;;;;;;;;;;5057484;28;19924;-88
2022/12/15 16:46:37;;;;;;;;;;;;;;;;;;5074284;28;19928;-88
2022/12/15 16:49:02;;;;;;;;;;;;;;;;;;5108061;28;19942;-89
2022/12/15 16:51:28;;;;;;;;;;;;;;;;;;5091156;28;19920;-88
2022/12/15 16:53:54;;;;;;;;;;;;;;;;;;5091080;28;20277;-88
2022/12/15 16:56:20;;;;;;;;;;;;;;;;;;5091052;28;19959;-88
2022/12/15 16:58:46;;;;;;;;;;;;;;;;;;5063882;28;19999;-88
2022/12/15 17:01:14;;;;;;;;;;;;;;;;;;5095615;28;20291;-88
2022/12/15 17:03:41;;;;;;;;;;;;;;;;;;5081328;28;19946;-88
2022/12/15 17:06:07;;;;;;;;;;;;;;;;;;5072207;28;19924;-88
2022/12/15 17:08:33;;;;;;;;;;;;;;;;;;5060838;28;19927;-88
2022/12/15 17:10:59;;;;;;;;;;;;;;;;;;5060719;28;19924;-88
2022/12/15 17:13:26;;;;;;;;;;;;;;;;;;5060694;28;19968;-88
2022/12/15 17:15:53;;;;;;;;;;;;;;;;;;5060757;28;20069;-88
2022/12/15 17:18:18;;;;;;;;;;;;;;;;;;5062680;28;19957;-88
2022/12/15 17:20:44;;;;;;;;;;;;;;;;;;5018768;28;1758487;-88
2022/12/15 17:23:10;;;;;;;;;;;;;;;;;;5077075;28;20404;-88
2022/12/15 17:25:36;;;;;;;;;;;;;;;;;;5087137;28;20027;-88
2022/12/15 17:28:02;;;;;;;;;;;;;;;;;;5081755;28;19988;-88
2022/12/15 17:30:28;;;;;;;;;;;;;;;;;;5115571;28;19920;-88
2022/12/15 17:32:54;;;;;;;;;;;;;;;;;;5081812;28;19927;-88
2022/12/15 17:35:20;;;;;;;;;;;;;;;;;;5063064;28;20361;-88
2022/12/15 17:37:46;;;;;;;;;;;;;;;;;;5061940;28;19920;-88
2022/12/15 17:40:12;;;;;;;;;;;;;;;;;;5061744;28;19927;-88
2022/12/15 17:42:37;;;;;;;;;;;;;;;;;;5078642;28;19999;-88
2022/12/15 17:45:03;;;;;;;;;;;;;;;;;;5065763;28;19923;-88
2022/12/15 17:47:29;;;;;;;;;;;;;;;;;;5073573;28;19990;-88
2022/12/15 17:49:55;;;;;;;;;;;;;;;;;;5076802;28;19963;-88
2022/12/15 17:52:21;;;;;;;;;;;;;;;;;;5074745;28;19932;-87
2022/12/15 17:54:47;;;;;;;;;;;;;;;;;;5061535;28;19959;-88
2022/12/15 17:57:13;;;;;;;;;;;;;;;;;;5061171;28;20010;-88
2022/12/15 17:59:39;;;;;;;;;;;;;;;;;;5061042;28;19924;-88
2022/12/15 18:02:05;;;;;;;;;;;;;;;;;;5061190;28;19924;-88
2022/12/15 18:04:31;;;;;;;;;;;;;;;;;;5077739;28;19935;-88
2022/12/15 18:06:57;;;;;;;;;;;;;;;;;;5077804;28;20233;-88
2022/12/15 18:09:22;;;;;;;;;;;;;;;;;;5076838;28;19920;-88
2022/12/15 18:11:48;;;;;;;;;;;;;;;;;;5081166;28;20365;-88
2022/12/15 18:14:14;;;;;;;;;;;;;;;;;;5081306;28;19919;-88
2022/12/15 18:16:40;;;;;;;;;;;;;;;;;;5081072;28;19924;-88
2022/12/15 18:19:07;;;;;;;;;;;;;;;;;;5080759;28;19969;-88
2022/12/15 18:21:32;;;;;;;;;;;;;;;;;;5097702;28;19934;-87
2022/12/15 18:23:59;;;;;;;;;;;;;;;;;;5080908;28;19920;-88
2022/12/15 18:26:24;;;;;;;;;;;;;;;;;;5080920;28;20346;-87
2022/12/15 18:28:50;;;;;;;;;;;;;;;;;;5080557;28;20014;-88
2022/12/15 18:31:16;;;;;;;;;;;;;;;;;;5080635;28;19932;-87
2022/12/15 18:33:43;;;;;;;;;;;;;;;;;;5081062;28;20006;-87
2022/12/15 18:36:09;;;;;;;;;;;;;;;;;;5077143;28;20280;-87
2022/12/15 18:38:35;;;;;;;;;;;;;;;;;;5060505;28;19963;-87
2022/12/15 18:41:03;;;;;;;;;;;;;;;;;;5060285;28;19931;-87
2022/12/15 18:43:29;;;;;;;;;;;;;;;;;;5060421;28;19973;-88
2022/12/15 18:45:55;;;;;;;;;;;;;;;;;;5076857;28;19924;-88
2022/12/15 18:48:21;;;;;;;;;;;;;;;;;;5060277;28;19967;-87
2022/12/15 18:50:47;;;;;;;;;;;;;;;;;;5075697;28;19927;-87
2022/12/15 18:53:12;;;;;;;;;;;;;;;;;;5060159;28;20407;-87
2022/12/15 18:55:38;;;;;;;;;;;;;;;;;;5064148;28;19920;-87
2022/12/15 18:58:04;;;;;;;;;;;;;;;;;;5085842;28;19966;-88
2022/12/15 19:00:31;;;;;;;;;;;;;;;;;;5079919;28;20368;-87
2022/12/15 19:02:57;;;;;;;;;;;;;;;;;;5097057;28;20403;-87
2022/12/15 19:05:31;;;;;;;;;;;;;;;;;;5080045;28;19924;-87
2022/12/15 19:07:57;;;;;;;;;;;;;;;;;;5080289;28;19920;-87
2022/12/15 19:10:23;;;;;;;;;;;;;;;;;;5079705;28;20288;-87
2022/12/15 19:12:49;;;;;;;;;;;;;;;;;;5079707;28;19920;-88